Portada
METAR-TAF:

METAR-TAF

Aeroports :

Williamson County Regional Airport

Marion, Illinois, Estats Units d'Amèrica

latitud: 37-45-01N, longitud: 089-00-04W, altitud: 144 m

Observació

L'informe es va fer fa 24 minuts, a les 11:15 UTC
Vent 9 kt del Nord
Temperatura 9°C
Humitat 57%
Pressió 1015 hPa
Visibilitat: 16.1 km
Cel clar

METAR: KMWA 091115Z AUTO 35009KT 10SM CLR 09/01 A2996 RMK AO2 T00920007

Hora: 06:39 (11:39 UTC)


TAF: manca

Observacions i pronòstics meteorològics de més de 4000 aeroports (METAR i TAF).

Les estacions disponibles són els punts grocs i vermells al mapa.

Posi el ratolí al punt desitjat per veure el nom de l'estació.

Feu clic per veure les observacions i els pronòstics meteorològics.

Per canviar el mapa: feu clic els botons verds amb una creu de color negre per apropar; al botó verd amb un guió per allunyar la imatge; o en les fletxes verdes per a mapes adjacents.


METAR-TAF: